Terminal Aerodrome Forecast
Issued by NWS Cleveland, OH

Home | Current Version | Previous Version | Text Only | Print | Product List | Glossary On
Versions: 1 2 3 4 5 6 7 8 9 10 11 12 13 14 15 16 17
000
FTUS41 KCLE 190200 CCB
TAFERI
TAF COR
KERI 190238Z 1903/1924 11004KT P6SM SCT025 SCT035
      TEMPO 1903/1906 BKN035
     FM190600 08005KT P6SM SKC
     FM190800 11005KT P6SM SKC
     FM191500 09006KT P6SM SCT040=

USA.gov is the U.S. government's official web portal to all federal, state and local government web resources and services.